Time;durP1;ratioP1;P1;durP2;ratioP2;P2;SDS_P1;SDS_P2;PMS_P1;PMS_P2;Temp;Humidity;BMP_temperature;BMP_pressure;BME280_temperature;BME280_humidity;BME280_pressure;Samples;Min_cycle;Max_cycle;Signal;HPM_P1;HPM_P2
2024/01/21 00:03:53;;;;;;;6.67;5.67;;;0.00;34.60;;;;;;10351208;28;20230;-77
2024/01/21 00:08:57;;;;;;;7.33;5.77;;;0.00;35.10;;;;;;10356592;28;20546;-77
2024/01/21 00:14:01;;;;;;;7.10;6.10;;;0.00;34.40;;;;;;10357634;28;20234;-77
2024/01/21 00:19:04;;;;;;;6.13;5.07;;;-0.10;34.20;;;;;;10359867;28;20759;-77
2024/01/21 00:24:08;;;;;;;6.83;5.30;;;-0.20;34.20;;;;;;10360163;28;20226;-77
2024/01/21 00:29:16;;;;;;;6.83;5.70;;;-0.30;34.10;;;;;;10353848;28;20865;-77
2024/01/21 00:34:19;;;;;;;7.27;5.57;;;-0.30;34.20;;;;;;10361967;28;20230;-77
2024/01/21 00:39:23;;;;;;;8.43;5.83;;;-0.30;34.30;;;;;;10359148;28;20222;-77
2024/01/21 00:44:27;;;;;;;8.00;5.90;;;-0.40;34.20;;;;;;10354464;28;20230;-77
2024/01/21 00:49:30;;;;;;;8.40;5.60;;;-0.50;34.20;;;;;;10361215;28;20226;-77
2024/01/21 00:54:35;;;;;;;6.77;5.30;;;-0.50;34.40;;;;;;10357990;28;20230;-77
2024/01/21 00:59:40;;;;;;;5.50;4.90;;;-0.60;34.40;;;;;;10353514;28;20301;-77
2024/01/21 01:04:43;;;;;;;6.53;5.40;;;-0.60;34.50;;;;;;10354327;28;20763;-77
2024/01/21 01:09:46;;;;;;;6.63;5.60;;;-0.60;34.50;;;;;;10360087;28;20230;-77
2024/01/21 01:14:51;;;;;;;7.43;5.43;;;-0.60;34.30;;;;;;10358113;28;20712;-77
2024/01/21 01:19:54;;;;;;;5.87;5.27;;;-0.60;34.30;;;;;;10362750;28;20264;-77
2024/01/21 01:24:57;;;;;;;8.10;5.37;;;-0.70;34.30;;;;;;10362422;28;20751;-77
2024/01/21 01:30:02;;;;;;;6.03;4.83;;;-0.70;34.30;;;;;;10361820;28;20309;-77
2024/01/21 01:35:06;;;;;;;5.47;4.97;;;-0.80;34.40;;;;;;10358048;28;20222;-77
2024/01/21 01:40:10;;;;;;;6.40;5.33;;;-0.80;34.30;;;;;;10358481;28;20226;-77
2024/01/21 01:45:14;;;;;;;7.23;5.43;;;-0.80;34.20;;;;;;10359674;28;20230;-77
2024/01/21 01:50:18;;;;;;;5.87;5.23;;;-0.80;34.20;;;;;;10359629;28;20234;-77
2024/01/21 01:55:22;;;;;;;6.30;5.13;;;-0.90;34.10;;;;;;10358982;28;20234;-77
2024/01/21 02:00:28;;;;;;;5.97;5.37;;;-0.90;34.10;;;;;;10352179;28;20238;-77
2024/01/21 02:05:31;;;;;;;5.90;5.13;;;-1.00;34.30;;;;;;10365772;28;20230;-77
2024/01/21 02:10:34;;;;;;;5.63;4.77;;;-1.00;34.30;;;;;;10365814;28;20226;-77
2024/01/21 02:15:39;;;;;;;5.90;4.77;;;-1.00;34.30;;;;;;10368366;28;20302;-77
2024/01/21 02:20:42;;;;;;;5.47;4.97;;;-1.10;34.10;;;;;;10367260;28;20232;-77
2024/01/21 02:25:47;;;;;;;5.37;4.83;;;-1.10;34.20;;;;;;10368940;28;20288;-77
2024/01/21 02:30:50;;;;;;;6.37;4.80;;;-1.10;34.30;;;;;;10366955;28;20309;-77
2024/01/21 02:35:53;;;;;;;6.10;4.47;;;-1.10;34.40;;;;;;10366618;28;20234;-77
2024/01/21 02:40:58;;;;;;;4.30;3.90;;;-1.10;34.50;;;;;;10366030;28;20280;-77
2024/01/21 02:46:01;;;;;;;5.03;3.87;;;-1.10;34.40;;;;;;10361650;28;20321;-77
2024/01/21 02:51:05;;;;;;;5.47;4.17;;;-1.10;34.40;;;;;;10362559;28;20705;-77
2024/01/21 02:56:09;;;;;;;5.97;4.40;;;-1.10;34.30;;;;;;10366503;28;20257;-77
2024/01/21 03:01:12;;;;;;;5.43;4.40;;;-1.10;35.10;;;;;;10364209;28;20704;-77
2024/01/21 03:06:16;;;;;;;5.23;4.30;;;-1.20;34.30;;;;;;10364488;28;20226;-77
2024/01/21 03:11:20;;;;;;;4.80;4.17;;;-1.20;34.30;;;;;;10362230;28;20314;-77
2024/01/21 03:16:24;;;;;;;5.17;4.37;;;-1.20;34.40;;;;;;10366088;28;20222;-77
2024/01/21 03:21:27;;;;;;;6.00;4.47;;;-1.20;34.40;;;;;;10364466;28;20226;-77
2024/01/21 03:26:32;;;;;;;5.00;4.37;;;-1.20;34.40;;;;;;10363496;28;20234;-77
2024/01/21 03:31:35;;;;;;;5.03;4.30;;;-1.20;34.40;;;;;;10364425;28;20226;-77
2024/01/21 03:36:39;;;;;;;4.83;4.33;;;-1.20;34.30;;;;;;10365125;28;20250;-77
2024/01/21 03:41:45;;;;;;;6.93;5.43;;;-1.00;34.40;;;;;;10364557;28;20239;-77
2024/01/21 03:46:48;;;;;;;5.40;4.53;;;-1.30;34.30;;;;;;10363289;28;20306;-76
2024/01/21 03:51:51;;;;;;;6.37;4.90;;;-1.30;34.30;;;;;;10364579;28;20770;-76
2024/01/21 03:56:56;;;;;;;5.50;4.37;;;-1.40;34.30;;;;;;10364164;28;20260;-76
2024/01/21 04:01:59;;;;;;;5.07;4.13;;;-1.40;34.30;;;;;;10350058;28;20239;-77
2024/01/21 04:07:02;;;;;;;5.43;4.03;;;-1.40;34.30;;;;;;10357178;28;20699;-76
2024/01/21 04:12:07;;;;;;;7.70;4.40;;;-1.40;34.20;;;;;;10359036;28;20234;-77
2024/01/21 04:17:10;;;;;;;3.87;3.50;;;-1.50;34.00;;;;;;10366433;28;20215;-76
2024/01/21 04:22:14;;;;;;;4.47;3.50;;;-1.60;34.10;;;;;;10362737;28;20230;-76
2024/01/21 04:27:18;;;;;;;6.50;4.00;;;-1.60;34.30;;;;;;10361110;28;20245;-76
2024/01/21 04:32:21;;;;;;;5.33;4.03;;;-1.60;34.40;;;;;;10359941;28;20238;-77
2024/01/21 04:37:25;;;;;;;4.07;3.43;;;-1.60;34.50;;;;;;10359770;28;20241;-76
2024/01/21 04:42:29;;;;;;;4.43;3.47;;;-1.60;34.40;;;;;;10363613;28;20280;-76
2024/01/21 04:47:33;;;;;;;5.27;4.10;;;-1.60;34.20;;;;;;10363015;28;20229;-76
2024/01/21 04:52:36;;;;;;;4.33;3.90;;;-1.70;34.10;;;;;;10354463;28;20230;-76
2024/01/21 04:57:41;;;;;;;3.87;3.47;;;-1.70;34.10;;;;;;10359815;28;20226;-76
2024/01/21 05:02:44;;;;;;;4.43;3.83;;;-1.80;34.10;;;;;;10358447;28;20226;-77
2024/01/21 05:07:48;;;;;;;5.37;4.00;;;-1.80;34.30;;;;;;10358226;28;20307;-77
2024/01/21 05:12:52;;;;;;;4.80;4.10;;;-1.80;34.30;;;;;;10361558;28;20317;-77
2024/01/21 05:17:56;;;;;;;4.07;3.63;;;-1.80;34.30;;;;;;10361791;28;20308;-76
2024/01/21 05:23:00;;;;;;;4.70;3.97;;;-1.80;34.30;;;;;;10361545;28;20230;-77
2024/01/21 05:28:05;;;;;;;4.67;3.73;;;-1.80;34.30;;;;;;10344094;28;20237;-76
2024/01/21 05:33:08;;;;;;;4.07;3.63;;;-1.80;34.20;;;;;;10350977;28;20328;-77
2024/01/21 05:38:12;;;;;;;4.37;3.70;;;-1.80;34.10;;;;;;10355460;28;20233;-77
2024/01/21 05:43:16;;;;;;;5.07;3.97;;;-1.80;34.20;;;;;;10356338;28;20807;-76
2024/01/21 05:48:20;;;;;;;6.67;4.33;;;-1.80;34.20;;;;;;10358831;28;20232;-77
2024/01/21 05:53:23;;;;;;;5.50;4.67;;;-1.70;34.30;;;;;;10361427;28;20664;-77
2024/01/21 05:58:27;;;;;;;8.17;5.37;;;-1.90;34.00;;;;;;10360393;28;20226;-77
2024/01/21 06:03:30;;;;;;;8.00;5.00;;;-1.90;34.10;;;;;;10353532;28;20230;-76
2024/01/21 06:08:34;;;;;;;5.17;4.53;;;-2.00;34.10;;;;;;10362258;28;20226;-76
2024/01/21 06:13:39;;;;;;;7.23;4.90;;;-2.00;34.30;;;;;;10356341;28;20579;-77
2024/01/21 06:18:42;;;;;;;5.10;4.60;;;-2.00;34.30;;;;;;10359248;28;20305;-77
2024/01/21 06:23:45;;;;;;;5.70;4.63;;;-2.00;34.30;;;;;;10360590;28;20226;-77
2024/01/21 06:28:50;;;;;;;7.40;4.53;;;-2.00;34.20;;;;;;10360333;28;20254;-76
2024/01/21 06:33:53;;;;;;;6.47;4.80;;;-2.00;34.20;;;;;;10360695;28;20250;-77
2024/01/21 06:38:56;;;;;;;7.17;5.00;;;-2.00;34.30;;;;;;10359253;28;20257;-77
2024/01/21 06:44:01;;;;;;;7.53;5.30;;;-2.00;34.30;;;;;;10351482;28;20230;-77
2024/01/21 06:49:04;;;;;;;6.90;4.90;;;-2.00;34.00;;;;;;10361631;28;20225;-76
2024/01/21 06:54:08;;;;;;;5.60;4.63;;;-2.10;34.00;;;;;;10364835;28;20226;-77
2024/01/21 06:59:12;;;;;;;6.43;4.83;;;-2.10;34.10;;;;;;10363678;28;20222;-77
2024/01/21 07:04:15;;;;;;;9.63;5.90;;;-2.20;33.90;;;;;;10365625;28;20309;-77
2024/01/21 07:09:19;;;;;;;14.17;8.90;;;-2.20;33.90;;;;;;10366912;28;20733;-78
2024/01/21 07:14:23;;;;;;;12.40;8.13;;;-2.20;34.00;;;;;;10370138;28;20234;-78
2024/01/21 07:19:27;;;;;;;9.77;7.13;;;-2.30;34.10;;;;;;10372785;28;20237;-77
2024/01/21 07:24:30;;;;;;;10.73;6.97;;;-2.40;34.30;;;;;;10364158;28;20234;-77
2024/01/21 07:29:35;;;;;;;14.97;9.73;;;-2.40;34.40;;;;;;10360827;28;20227;-77
2024/01/21 07:34:38;;;;;;;14.50;10.70;;;-2.30;34.60;;;;;;10359674;28;20362;-77
2024/01/21 07:39:42;;;;;;;15.80;12.10;;;-2.30;34.60;;;;;;10358580;28;20305;-77
2024/01/21 07:44:46;;;;;;;12.00;10.20;;;-2.30;34.60;;;;;;10358906;28;20234;-77
2024/01/21 07:49:49;;;;;;;10.20;7.67;;;-2.40;34.70;;;;;;10360424;28;20318;-77
2024/01/21 07:54:53;;;;;;;7.13;6.43;;;-2.40;35.10;;;;;;10360416;28;20317;-77
2024/01/21 07:59:58;;;;;;;8.10;6.43;;;-2.30;35.60;;;;;;10363647;28;20230;-77
2024/01/21 08:05:02;;;;;;;8.47;5.87;;;-2.30;36.10;;;;;;10361563;28;20241;-77
2024/01/21 08:10:06;;;;;;;7.83;6.17;;;-2.10;36.50;;;;;;10361492;28;20233;-77
2024/01/21 08:15:11;;;;;;;7.60;5.33;;;-2.00;36.90;;;;;;10361602;28;20234;-77
2024/01/21 08:20:15;;;;;;;6.93;5.07;;;-1.70;37.30;;;;;;10357384;28;20648;-78
2024/01/21 08:25:18;;;;;;;5.77;4.77;;;-1.50;37.40;;;;;;10361674;28;20234;-77
2024/01/21 08:30:23;;;;;;;5.30;4.77;;;-1.30;37.40;;;;;;10364755;28;20728;-78
2024/01/21 08:35:26;;;;;;;5.53;4.87;;;-1.00;37.50;;;;;;10355746;28;20794;-78
2024/01/21 08:40:31;;;;;;;5.00;4.50;;;-0.80;37.20;;;;;;10357238;28;20258;-77
2024/01/21 08:45:35;;;;;;;7.23;4.93;;;-0.60;37.10;;;;;;10358620;28;20226;-77
2024/01/21 08:50:39;;;;;;;5.00;4.57;;;-0.50;37.10;;;;;;10361736;28;20230;-77
2024/01/21 08:55:42;;;;;;;7.43;5.47;;;-0.30;37.20;;;;;;10362931;28;20230;-76
2024/01/21 09:00:47;;;;;;;14.27;10.03;;;0.00;37.30;;;;;;10364772;28;20226;-76
2024/01/21 09:05:50;;;;;;;13.20;10.10;;;0.10;36.90;;;;;;10363763;28;20562;-77
2024/01/21 09:10:53;;;;;;;6.80;6.10;;;0.40;37.20;;;;;;10362640;28;20755;-77
2024/01/21 09:15:58;;;;;;;8.27;7.23;;;0.40;37.40;;;;;;10357336;28;20738;-77
2024/01/21 09:21:02;;;;;;;7.00;5.33;;;0.60;37.40;;;;;;10358212;28;20218;-77
2024/01/21 09:26:05;;;;;;;6.23;5.63;;;0.80;37.60;;;;;;10351749;28;20272;-78
2024/01/21 09:31:10;;;;;;;6.73;5.60;;;1.00;37.40;;;;;;10359431;28;20317;-77
2024/01/21 09:36:15;;;;;;;6.90;6.20;;;1.20;37.40;;;;;;10353727;28;20226;-78
2024/01/21 09:41:26;;;;;;;6.47;5.80;;;1.40;37.40;;;;;;10342929;28;20226;-76
2024/01/21 09:46:31;;;;;;;5.73;5.20;;;1.80;37.50;;;;;;10350633;28;20236;-77
2024/01/21 09:51:37;;;;;;;5.53;5.03;;;1.90;37.10;;;;;;10345039;28;20237;-76
2024/01/21 09:56:41;;;;;;;6.57;5.97;;;2.20;37.20;;;;;;10340349;28;20222;-77
2024/01/21 10:01:47;;;;;;;6.53;5.87;;;2.50;37.50;;;;;;10351871;28;20327;-76
2024/01/21 10:06:51;;;;;;;7.00;5.87;;;2.70;37.40;;;;;;10369143;28;20238;-77
2024/01/21 10:11:56;;;;;;;6.13;5.53;;;2.90;37.20;;;;;;10359224;28;20269;-78
2024/01/21 10:17:02;;;;;;;6.00;5.50;;;3.10;37.10;;;;;;10350549;28;20225;-77
2024/01/21 10:22:09;;;;;;;7.57;6.10;;;3.30;36.70;;;;;;10354223;28;20230;-77
2024/01/21 10:27:13;;;;;;;6.10;5.37;;;3.50;36.50;;;;;;10360070;28;20234;-77
2024/01/21 10:32:18;;;;;;;7.37;6.37;;;3.60;36.60;;;;;;10365336;28;20269;-77
2024/01/21 10:37:22;;;;;;;7.10;5.50;;;3.60;36.10;;;;;;10361399;28;20325;-77
2024/01/21 10:42:25;;;;;;;7.73;7.00;;;3.90;36.30;;;;;;10363200;28;20257;-76
2024/01/21 10:47:33;;;;;;;6.90;5.90;;;3.90;36.60;;;;;;10357979;28;20245;-78
2024/01/21 10:52:37;;;;;;;6.67;5.93;;;4.00;36.00;;;;;;10362256;28;20236;-76
2024/01/21 10:57:40;;;;;;;5.47;4.97;;;4.20;36.20;;;;;;10363888;28;20312;-76
2024/01/21 11:03:21;;;;;;;5.37;4.80;;;4.30;36.20;;;;;;10359714;28;20313;-75
2024/01/21 11:08:25;;;;;;;4.83;4.37;;;4.40;35.40;;;;;;10357969;28;20230;-75
2024/01/21 11:13:44;;;;;;;4.80;4.40;;;4.60;36.40;;;;;;10358654;28;20230;-76
2024/01/21 11:18:49;;;;;;;4.77;4.33;;;4.70;34.50;;;;;;10353141;28;20276;-75
2024/01/21 11:24:00;;;;;;;4.53;4.13;;;4.70;35.70;;;;;;10356568;28;20235;-75
2024/01/21 11:29:21;;;;;;;7.40;6.63;;;4.80;35.00;;;;;;10356466;28;20309;-75
2024/01/21 11:34:28;;;;;;;6.33;5.73;;;4.80;35.60;;;;;;10356354;28;20236;-76
2024/01/21 11:39:31;;;;;;;6.23;5.50;;;4.90;35.30;;;;;;10355674;28;20232;-76
2024/01/21 11:44:39;;;;;;;12.67;9.53;;;4.90;35.40;;;;;;10350237;28;20245;-75
2024/01/21 11:49:44;;;;;;;10.97;9.53;;;5.00;35.20;;;;;;10354851;28;20222;-76
2024/01/21 11:54:49;;;;;;;5.60;5.10;;;4.90;35.30;;;;;;10355599;28;20246;-76
2024/01/21 11:59:52;;;;;;;6.67;5.63;;;4.90;35.20;;;;;;10356731;28;20233;-75
2024/01/21 12:04:57;;;;;;;5.23;4.73;;;4.90;35.40;;;;;;10350134;28;20318;-75
2024/01/21 12:10:01;;;;;;;6.93;5.67;;;4.90;35.50;;;;;;10354283;28;20238;-74
2024/01/21 12:15:07;;;;;;;5.43;4.93;;;5.00;35.60;;;;;;10349502;28;20253;-74
2024/01/21 12:20:13;;;;;;;5.13;4.73;;;5.00;35.30;;;;;;10351957;28;20295;-75
2024/01/21 12:25:20;;;;;;;6.57;5.80;;;5.00;35.10;;;;;;10355038;28;20241;-73
2024/01/21 12:30:26;;;;;;;5.83;5.23;;;5.10;35.40;;;;;;10345529;28;20653;-74
2024/01/21 12:35:31;;;;;;;6.70;5.70;;;5.20;35.20;;;;;;10367431;28;20284;-73
2024/01/21 12:40:34;;;;;;;5.30;4.63;;;5.30;35.30;;;;;;10347245;28;20254;-74
2024/01/21 12:45:38;;;;;;;5.27;4.77;;;5.40;35.30;;;;;;10346143;28;20712;-73
2024/01/21 12:50:43;;;;;;;5.00;4.60;;;5.40;35.10;;;;;;10345906;28;20931;-74
2024/01/21 12:55:47;;;;;;;5.47;4.60;;;5.50;35.20;;;;;;10343924;28;20233;-74
2024/01/21 13:00:50;;;;;;;5.20;4.70;;;5.50;35.20;;;;;;10348878;28;20924;-74
2024/01/21 13:05:55;;;;;;;4.83;4.33;;;5.60;35.00;;;;;;10345018;28;20354;-75
2024/01/21 13:10:59;;;;;;;5.47;4.97;;;5.70;35.70;;;;;;10349548;28;20257;-75
2024/01/21 13:16:03;;;;;;;5.33;4.53;;;5.70;35.20;;;;;;10343480;28;20333;-74
2024/01/21 13:21:09;;;;;;;5.20;4.17;;;5.80;35.20;;;;;;10346655;28;20282;-74
2024/01/21 13:26:14;;;;;;;6.20;5.00;;;5.90;35.20;;;;;;10344848;28;20229;-73
2024/01/21 13:31:17;;;;;;;4.73;4.27;;;6.00;35.90;;;;;;10344741;28;20226;-74
2024/01/21 13:36:21;;;;;;;5.00;4.30;;;6.10;35.20;;;;;;10342500;28;20855;-74
2024/01/21 13:41:25;;;;;;;4.50;4.10;;;6.20;34.80;;;;;;10342678;28;20756;-75
2024/01/21 13:46:28;;;;;;;7.67;6.80;;;6.20;34.70;;;;;;10344541;28;20337;-74
2024/01/21 13:51:33;;;;;;;6.77;5.70;;;6.20;35.50;;;;;;10344541;28;20222;-74
2024/01/21 13:56:36;;;;;;;4.90;4.47;;;6.20;34.70;;;;;;10348645;28;20254;-74
2024/01/21 14:01:39;;;;;;;5.13;4.53;;;6.10;34.80;;;;;;10358427;28;20262;-74
2024/01/21 14:06:49;;;;;;;5.70;4.80;;;6.20;34.80;;;;;;10354611;28;20231;-74
2024/01/21 14:11:53;;;;;;;5.13;4.40;;;6.20;34.60;;;;;;10341033;28;20349;-74
2024/01/21 14:16:56;;;;;;;6.23;4.80;;;6.10;34.70;;;;;;10323496;28;20254;-75
2024/01/21 14:22:00;;;;;;;13.43;10.37;;;6.10;34.70;;;;;;10332812;28;20234;-74
2024/01/21 14:27:04;;;;;;;7.30;6.30;;;6.20;34.40;;;;;;10358245;28;20234;-75
2024/01/21 14:32:08;;;;;;;7.10;5.97;;;6.20;34.80;;;;;;10357346;28;20237;-75
2024/01/21 14:37:12;;;;;;;5.27;4.53;;;6.30;34.80;;;;;;10358662;28;20763;-75
2024/01/21 14:42:16;;;;;;;5.33;4.83;;;6.30;34.40;;;;;;10350483;28;20245;-75
2024/01/21 14:47:19;;;;;;;5.40;4.90;;;6.40;34.60;;;;;;10355544;28;20233;-74
2024/01/21 14:52:25;;;;;;;5.43;4.80;;;6.40;34.60;;;;;;10358468;28;20317;-74
2024/01/21 14:57:28;;;;;;;5.80;5.20;;;6.40;34.20;;;;;;10358327;28;20322;-74
2024/01/21 15:02:31;;;;;;;8.50;6.27;;;6.50;34.40;;;;;;10361659;28;20656;-75
2024/01/21 15:07:36;;;;;;;7.83;6.10;;;6.50;34.30;;;;;;10351357;28;20234;-75
2024/01/21 15:12:43;;;;;;;5.60;5.00;;;6.50;34.20;;;;;;10355493;28;20226;-75
2024/01/21 15:17:47;;;;;;;5.60;5.07;;;6.50;34.10;;;;;;10360370;28;20223;-75
2024/01/21 15:22:52;;;;;;;5.80;4.77;;;6.40;34.10;;;;;;10358006;28;20651;-75
2024/01/21 15:27:56;;;;;;;5.90;5.27;;;6.40;33.90;;;;;;10354055;28;20253;-75
2024/01/21 15:32:59;;;;;;;5.43;4.87;;;6.30;34.10;;;;;;10357845;28;20733;-75
2024/01/21 15:38:04;;;;;;;6.93;6.00;;;6.20;33.90;;;;;;10347068;28;20222;-74
2024/01/21 15:43:07;;;;;;;6.33;5.67;;;6.10;33.90;;;;;;10344033;28;20226;-74
2024/01/21 15:48:10;;;;;;;6.47;5.83;;;5.90;34.10;;;;;;10344325;28;20325;-73
2024/01/21 15:53:15;;;;;;;16.90;12.80;;;5.90;34.30;;;;;;10343733;28;20310;-73
2024/01/21 15:58:18;;;;;;;20.40;14.87;;;5.80;34.10;;;;;;10345307;28;20226;-73
2024/01/21 16:03:22;;;;;;;18.67;13.43;;;5.80;34.20;;;;;;10348776;28;20419;-73
2024/01/21 16:08:27;;;;;;;12.33;9.80;;;5.80;34.10;;;;;;10344898;28;20234;-73
2024/01/21 16:13:31;;;;;;;10.90;9.07;;;5.80;33.80;;;;;;10347878;28;20234;-73
2024/01/21 16:18:39;;;;;;;11.93;10.73;;;5.60;34.00;;;;;;10350696;28;20230;-73
2024/01/21 16:23:44;;;;;;;9.33;8.00;;;5.50;34.20;;;;;;10353590;28;20226;-73
2024/01/21 16:28:47;;;;;;;11.77;10.43;;;5.50;34.20;;;;;;10353487;28;20230;-73
2024/01/21 16:33:50;;;;;;;16.73;11.87;;;5.40;34.20;;;;;;10349816;28;20333;-73
2024/01/21 16:38:55;;;;;;;14.60;12.53;;;5.30;34.10;;;;;;10352277;28;20230;-73
2024/01/21 16:44:01;;;;;;;22.47;18.10;;;5.30;34.10;;;;;;10348739;28;20317;-74
2024/01/21 16:49:04;;;;;;;12.93;11.60;;;5.20;34.00;;;;;;10353570;28;20223;-73
2024/01/21 16:54:12;;;;;;;14.40;13.00;;;5.00;34.10;;;;;;10345757;28;20656;-73
2024/01/21 16:59:17;;;;;;;11.77;10.27;;;5.00;34.20;;;;;;10350243;28;20261;-75
2024/01/21 17:04:22;;;;;;;12.77;11.47;;;4.90;34.40;;;;;;10349448;28;20293;-73
2024/01/21 17:09:27;;;;;;;12.07;10.80;;;4.90;34.30;;;;;;10351997;28;20320;-73
2024/01/21 17:14:30;;;;;;;13.10;11.80;;;4.80;34.30;;;;;;10350156;28;20588;-73
2024/01/21 17:19:33;;;;;;;13.83;11.33;;;4.80;34.40;;;;;;10341170;28;20226;-72
2024/01/21 17:24:38;;;;;;;10.63;9.10;;;4.70;34.30;;;;;;10341813;28;20332;-72
2024/01/21 17:29:42;;;;;;;10.93;9.57;;;4.70;34.30;;;;;;10343227;28;20231;-72
2024/01/21 17:34:45;;;;;;;11.07;9.47;;;4.60;34.30;;;;;;10346513;28;20316;-73
2024/01/21 17:39:50;;;;;;;13.03;9.90;;;4.60;34.40;;;;;;10345822;28;20780;-73
2024/01/21 17:44:53;;;;;;;12.50;10.33;;;4.50;34.30;;;;;;10342729;28;20236;-72
2024/01/21 17:49:56;;;;;;;10.77;9.50;;;4.50;34.30;;;;;;10345857;28;20242;-73
2024/01/21 17:55:01;;;;;;;16.93;12.30;;;4.40;34.30;;;;;;10341042;28;20289;-72
2024/01/21 18:00:05;;;;;;;14.13;11.50;;;4.30;34.30;;;;;;10348959;28;20226;-72
2024/01/21 18:05:11;;;;;;;13.30;11.13;;;4.20;34.40;;;;;;10345422;28;20238;-72
2024/01/21 18:10:16;;;;;;;21.20;18.90;;;4.10;34.50;;;;;;10345643;28;20841;-72
2024/01/21 18:15:20;;;;;;;20.33;16.93;;;4.00;34.30;;;;;;10343992;28;20654;-72
2024/01/21 18:20:23;;;;;;;21.10;17.97;;;3.70;34.60;;;;;;10340645;28;20305;-72
2024/01/21 18:25:28;;;;;;;17.13;14.80;;;3.60;35.10;;;;;;10340453;28;20315;-72
2024/01/21 18:30:31;;;;;;;14.83;12.57;;;3.60;35.20;;;;;;10344619;28;20250;-72
2024/01/21 18:35:35;;;;;;;16.90;13.83;;;3.60;35.00;;;;;;10335983;28;20246;-72
2024/01/21 18:40:39;;;;;;;17.93;13.43;;;3.60;35.60;;;;;;10340604;28;20231;-72
2024/01/21 18:45:43;;;;;;;18.33;14.40;;;3.60;35.50;;;;;;10349013;28;20816;-72
2024/01/21 18:50:46;;;;;;;18.93;14.17;;;3.60;35.30;;;;;;10349273;28;20346;-72
2024/01/21 18:55:50;;;;;;;21.27;16.87;;;3.60;35.20;;;;;;10350417;28;20284;-72
2024/01/21 19:00:53;;;;;;;22.73;16.80;;;3.60;35.20;;;;;;10351116;28;20229;-72
2024/01/21 19:05:57;;;;;;;26.23;20.67;;;3.60;35.00;;;;;;10349086;28;20253;-72
2024/01/21 19:11:02;;;;;;;17.50;13.93;;;3.50;35.40;;;;;;10348042;28;20238;-72
2024/01/21 19:16:06;;;;;;;15.53;11.57;;;3.50;35.60;;;;;;10345043;28;20829;-71
2024/01/21 19:21:09;;;;;;;13.13;10.90;;;3.40;35.50;;;;;;10349255;28;20223;-72
2024/01/21 19:26:14;;;;;;;17.93;14.13;;;3.50;35.60;;;;;;10347346;28;20230;-72
2024/01/21 19:31:17;;;;;;;18.20;11.87;;;3.40;35.50;;;;;;10347082;28;20229;-72
2024/01/21 19:36:21;;;;;;;15.73;13.27;;;3.40;35.40;;;;;;10350898;28;20306;-72
2024/01/21 19:41:25;;;;;;;16.77;12.70;;;3.30;35.40;;;;;;10344526;28;21290;-72
2024/01/21 19:46:29;;;;;;;18.30;13.20;;;3.40;35.40;;;;;;10341860;28;20317;-71
2024/01/21 19:51:32;;;;;;;19.37;13.37;;;3.30;35.40;;;;;;10336966;28;20719;-74
2024/01/21 19:56:37;;;;;;;17.40;12.80;;;3.20;35.30;;;;;;10346236;28;20730;-77
2024/01/21 20:01:41;;;;;;;16.33;12.17;;;3.20;35.30;;;;;;10343177;28;20231;-74
2024/01/21 20:06:44;;;;;;;17.60;13.07;;;3.20;35.30;;;;;;10347900;28;20231;-74
2024/01/21 20:11:49;;;;;;;16.80;12.23;;;3.20;35.30;;;;;;10351490;28;20732;-75
2024/01/21 20:16:53;;;;;;;13.63;11.57;;;3.20;35.30;;;;;;10348773;28;20306;-75
2024/01/21 20:21:56;;;;;;;21.97;17.33;;;3.20;35.30;;;;;;10347334;28;20318;-74
2024/01/21 20:27:00;;;;;;;18.10;14.93;;;3.20;35.30;;;;;;10347361;28;20233;-74
2024/01/21 20:32:04;;;;;;;18.50;13.90;;;3.00;35.10;;;;;;10357085;28;20219;-75
2024/01/21 20:37:07;;;;;;;15.90;12.83;;;3.00;35.20;;;;;;10346983;28;20234;-74
2024/01/21 20:42:13;;;;;;;15.10;12.33;;;2.90;35.10;;;;;;10342637;28;20234;-74
2024/01/21 20:47:16;;;;;;;14.70;12.33;;;2.80;35.20;;;;;;10341273;28;20262;-76
2024/01/21 20:52:20;;;;;;;14.90;12.17;;;2.80;35.20;;;;;;10343098;28;20236;-78
2024/01/21 20:57:26;;;;;;;12.93;11.47;;;2.80;35.00;;;;;;10349293;28;20229;-79
2024/01/21 21:02:29;;;;;;;16.87;12.80;;;2.80;35.10;;;;;;10347417;28;20233;-72
2024/01/21 21:07:32;;;;;;;15.00;12.43;;;2.80;35.00;;;;;;10346442;28;20234;-74
2024/01/21 21:12:37;;;;;;;15.60;11.50;;;2.80;35.00;;;;;;10342413;28;20234;-74
2024/01/21 21:17:41;;;;;;;14.37;11.30;;;2.80;35.00;;;;;;10349876;28;21079;-74
2024/01/21 21:22:44;;;;;;;12.60;10.60;;;2.70;35.10;;;;;;10341389;28;20682;-74
2024/01/21 21:27:49;;;;;;;14.27;11.07;;;2.70;35.30;;;;;;10342799;28;20943;-74
2024/01/21 21:32:52;;;;;;;27.53;20.33;;;2.70;35.40;;;;;;10343383;28;20249;-73
2024/01/21 21:37:56;;;;;;;16.47;12.30;;;2.70;35.30;;;;;;10338557;28;20577;-74
2024/01/21 21:43:00;;;;;;;17.27;13.03;;;2.70;35.30;;;;;;10349998;28;20329;-74
2024/01/21 21:48:05;;;;;;;11.73;10.27;;;2.60;35.40;;;;;;10348836;28;20231;-74
2024/01/21 21:53:09;;;;;;;13.20;11.07;;;2.50;35.50;;;;;;10348527;28;20784;-74
2024/01/21 21:58:14;;;;;;;15.60;11.87;;;2.40;35.60;;;;;;10344814;28;20287;-74
2024/01/21 22:03:18;;;;;;;13.70;11.70;;;2.40;35.80;;;;;;10345617;28;20222;-74
2024/01/21 22:08:22;;;;;;;13.80;10.60;;;2.40;35.70;;;;;;10345323;28;20241;-74
2024/01/21 22:13:26;;;;;;;11.57;9.40;;;2.50;35.70;;;;;;10349225;28;20254;-74
2024/01/21 22:18:32;;;;;;;10.47;8.87;;;2.40;35.50;;;;;;10345705;28;20231;-75
2024/01/21 22:23:35;;;;;;;8.97;7.70;;;2.50;35.50;;;;;;10360550;28;20226;-74
2024/01/21 22:28:40;;;;;;;10.40;9.13;;;2.40;35.40;;;;;;10358393;28;20234;-74
2024/01/21 22:33:44;;;;;;;9.57;8.13;;;2.60;35.70;;;;;;10357319;28;20448;-74
2024/01/21 22:38:48;;;;;;;9.83;8.63;;;2.50;35.40;;;;;;10359322;28;20236;-74
2024/01/21 22:43:52;;;;;;;10.97;7.63;;;2.50;35.50;;;;;;10358073;28;20226;-75
2024/01/21 22:48:56;;;;;;;8.67;6.97;;;2.40;35.10;;;;;;10354826;28;20237;-74
2024/01/21 22:53:59;;;;;;;8.63;7.63;;;2.40;35.20;;;;;;10354386;28;20709;-74
2024/01/21 22:59:04;;;;;;;10.00;7.70;;;2.40;35.30;;;;;;10357289;28;20237;-74
2024/01/21 23:04:07;;;;;;;9.53;8.23;;;2.30;35.30;;;;;;10356494;28;20262;-75
2024/01/21 23:09:10;;;;;;;9.77;8.77;;;2.30;35.20;;;;;;10350718;28;20258;-74
2024/01/21 23:14:15;;;;;;;10.33;8.47;;;2.30;35.10;;;;;;10352830;28;20313;-75
2024/01/21 23:19:18;;;;;;;10.33;8.03;;;2.30;35.20;;;;;;10354686;28;20277;-75
2024/01/21 23:24:21;;;;;;;8.63;7.70;;;2.30;35.10;;;;;;10352867;28;20812;-75
2024/01/21 23:29:25;;;;;;;9.97;7.80;;;2.10;35.10;;;;;;10355788;28;20236;-75
2024/01/21 23:34:29;;;;;;;10.07;7.77;;;2.00;35.40;;;;;;10351307;28;20241;-75
2024/01/21 23:39:32;;;;;;;10.77;8.07;;;2.00;35.50;;;;;;10357628;28;20237;-74
2024/01/21 23:44:37;;;;;;;8.93;7.73;;;2.00;35.50;;;;;;10358278;28;20258;-75
2024/01/21 23:49:42;;;;;;;12.17;7.90;;;2.00;35.50;;;;;;10355062;28;20222;-75
2024/01/21 23:54:47;;;;;;;9.90;7.70;;;2.00;35.60;;;;;;10352501;28;20230;-75
2024/01/21 23:59:52;;;;;;;9.53;7.67;;;1.90;35.30;;;;;;10352454;28;20729;-75
